• Join FlightAware (Why Join?)
  • Login
  • US Flag 
06:03AM EDT


 

Airport Tracker/Info


-or-


 

Live Flight TrackerFlight Track Log ✈ PDT4207 ✈ 26-Oct-2013 ✈ KPHL - KBGM

Flight Track Log - Related Links

Times and Time Zones

All times are in EDT time to prevent confusion due to time zone crossing. See the PDT4207 flight status page for this flight to view local times or setup timezone preferences in your user account.

Time Position Orientation Groundspeed Altitude Reporting Facility
EDT Latitude Longitude Course Direction KTS MPH feet Rate Location/Type
09:37PM 39.9000 -75.2333 311° West 132 152 500  Level Philadelphia TRACON
09:38PM 39.9167 -75.2667 303° West 134 154 2,100 1,680 Climbing Philadelphia TRACON
09:39PM 39.9500 -75.3000 323° Northwest 161 185 3,800 1,860 Climbing Philadelphia TRACON
09:40PM 40.1107 -75.3139 311° West  Level Estimated
09:40PM 39.9833 -75.3333 323° Northwest 134 154 5,500  Level Philadelphia TRACON
09:41PM 40.1902 -75.3383 311° West  Level Estimated
09:41PM 40.0167 -75.3667 323° Northwest 148 170 7,100  Level Philadelphia TRACON
09:42PM 40.2243 -75.4354 295° West  Level FlightAware Approximate
09:42PM 40.0500 -75.3833 339° North 163 188 8,200  Level Philadelphia TRACON
09:43PM 40.3043 -75.4567 311° West  Level Estimated
09:43PM 40.0761 -75.4178 315° West 176 203 9,000  Level New York Center
09:44PM 40.1122 -75.4581 320° Northwest 223 257 9,000  Level New York Center
09:45PM 40.1703 -75.5139 324° Northwest 230 265 9,000 480 Level New York Center
09:46PM 40.2269 -75.5583 329° Northwest 235 270 10,000 1,020 Climbing New York Center
09:47PM 40.2600 -75.6125 309° West 207 238 11,100 900 Climbing New York Center
09:48PM 40.2956 -75.6611 314° West 194 223 11,900 720 Climbing New York Center
09:49PM 40.3467 -75.6867 339° North 199 229 12,600 660 Climbing New York Center
09:50PM 40.3975 -75.7200 333° Northwest 204 235 13,300 660 Climbing New York Center
09:51PM 40.4564 -75.7544 336° Northwest 204 235 14,000 300 Climbing New York Center
09:52PM 40.5111 -75.7911 333° Northwest 216 249 14,000  Level New York Center
09:53PM 40.5678 -75.8308 332° Northwest 221 254 14,000  Level New York Center
09:54PM 40.6250 -75.8542 343° North 234 269 14,000  Level New York Center
09:55PM 40.6861 -75.8861 338° Northwest 239 275 14,000  Level New York Center
09:56PM 40.7492 -75.9264 334° Northwest 232 267 14,000  Level New York Center
09:57PM 40.8081 -75.9608 336° Northwest 232 267 14,000  Level New York Center
09:58PM 40.8689 -75.9958 336° Northwest 232 267 14,000  Level New York Center
09:59PM 40.9256 -76.0358 332° Northwest 232 267 14,000  Level New York Center
10:00PM 40.9844 -76.0678 338° Northwest 232 267 14,000  Level New York Center
10:01PM 41.0375 -76.0939 340° North 232 267 14,100  Climbing New York Center
10:02PM 41.0964 -76.1289 336° Northwest 227 261 14,000  Descending New York Center
10:03PM 41.1633 -76.1700 335° Northwest 232 267 14,100  Climbing New York Center
10:04PM 41.2200 -76.2050 335° Northwest 232 267 14,000  Descending New York Center
10:05PM 41.2886 -76.2106 357° North 232 267 14,100 -420 Climbing New York Center
10:06PM 41.3556 -76.1992 North 249 287 13,200 -1,200 Descending New York Center
10:07PM 41.4308 -76.1969 North 268 308 11,800 -1,560 Descending New York Center
10:08PM 41.5125 -76.1869 North 268 308 10,100 -1,380 Descending New York Center
10:09PM 41.5811 -76.1869 360° North 263 303 9,100 -540 Descending New York Center
10:10PM 41.6439 -76.1839 North 233 268 9,100  Level New York Center
10:11PM 41.6983 -76.1744 North 225 259 9,100 -300 Level New York Center
10:12PM 41.7614 -76.1600 10° North 220 253 8,600 -1,140 Descending New York Center
10:13PM 41.8347 -76.1519 North 225 259 6,900 -1,620 Descending New York Center
10:14PM 41.8967 -76.1208 20° North 235 270 5,400 -1,500 Descending New York Center
10:15PM 41.9625 -76.0897 19° North 247 284 4,000 -960 Descending New York Center
10:16PM 42.0194 -76.0750 11° North 242 278 3,600 -240 Descending New York Center
10:17PM 42.0767 -76.0486 19° North 214 246 3,600  Level New York Center
10:18PM 42.1236 -76.0217 23° Northeast 190 219 3,600 -120 Level New York Center
10:19PM 42.1650 -75.9803 37° Northeast 185 213 3,400 -780 Descending New York Center
10:20PM 42.1886 -75.9653 25° Northeast 163 188 2,100 -1,380 Descending New York Center